Saint Kilda, New Zealand
Current Conditions -  °F | °C
As of 8:30 PM on Monday 20 Oct 2014 (Local Time) from NZCH Reporting Station
Rain Showers Rain Showers  
Wind Chill: 40°   Ceiling: 4000
Heat Index: 45°   Visibility: 6mi
Dew Point: 43°   Wind: 9mph
Humidity: 93%   Direction: 210°SSW
Pressure: 30.03"   Gusts: NA
Location:  45.9°S, 170.5°E
Report Text: NZCH 200830Z AUTO 21008KT 9999 -SHRA FEW015/// BKN040///OVC070/// 07/06 Q1017 TEMPO TL1000 6000 RA
Loading
Personal Weather Stations






























Interactive Weather Map
Tropical Storm Tracking
New forecast layout! Learn more

10-Day Weather Forecast

Advertisements
Track Severe Weather on mobile